sensor_id;sensor_type;location;lat;lon;timestamp;P1;durP1;ratioP1;P2;durP2;ratioP2
1024;SDS011;501;48.214;11.350;2023-12-07T02:31:11;21.63;;;14.93;;
1024;SDS011;501;48.214;11.350;2023-12-07T02:33:37;20.37;;;15.77;;
1024;SDS011;501;48.214;11.350;2023-12-07T02:36:03;21.00;;;14.13;;
1024;SDS011;501;48.214;11.350;2023-12-07T02:38:30;21.20;;;13.77;;
1024;SDS011;501;48.214;11.350;2023-12-07T03:12:13;17.67;;;12.47;;
1024;SDS011;501;48.214;11.350;2023-12-07T03:14:39;18.73;;;12.60;;
1024;SDS011;501;48.214;11.350;2023-12-07T03:17:05;19.40;;;12.00;;
1024;SDS011;501;48.214;11.350;2023-12-07T03:19:31;19.87;;;13.30;;
1024;SDS011;501;48.214;11.350;2023-12-07T03:32:21;17.57;;;11.10;;
1024;SDS011;501;48.214;11.350;2023-12-07T03:34:47;17.20;;;11.70;;
1024;SDS011;501;48.214;11.350;2023-12-07T03:37:12;15.60;;;11.27;;
1024;SDS011;501;48.214;11.350;2023-12-07T03:39:38;19.63;;;13.63;;
1024;SDS011;501;48.214;11.350;2023-12-07T03:42:04;18.40;;;12.50;;
1024;SDS011;501;48.214;11.350;2023-12-07T03:44:33;18.23;;;12.20;;
1024;SDS011;501;48.214;11.350;2023-12-07T03:46:59;16.80;;;12.63;;
1024;SDS011;501;48.214;11.350;2023-12-07T03:49:26;15.80;;;11.97;;
1024;SDS011;501;48.214;11.350;2023-12-07T03:51:54;14.67;;;11.37;;
1024;SDS011;501;48.214;11.350;2023-12-07T03:54:20;15.37;;;11.07;;
1024;SDS011;501;48.214;11.350;2023-12-07T03:56:45;19.20;;;12.70;;
1024;SDS011;501;48.214;11.350;2023-12-07T03:59:12;18.30;;;11.27;;
1024;SDS011;501;48.214;11.350;2023-12-07T04:01:38;15.77;;;11.87;;
1024;SDS011;501;48.214;11.350;2023-12-07T04:04:04;15.73;;;11.10;;
1024;SDS011;501;48.214;11.350;2023-12-07T04:06:30;17.27;;;11.03;;
1024;SDS011;501;48.214;11.350;2023-12-07T04:08:56;16.33;;;12.20;;
1024;SDS011;501;48.214;11.350;2023-12-07T04:11:21;17.13;;;12.13;;
1024;SDS011;501;48.214;11.350;2023-12-07T04:13:47;16.43;;;11.17;;
1024;SDS011;501;48.214;11.350;2023-12-07T04:16:14;17.60;;;11.70;;
1024;SDS011;501;48.214;11.350;2023-12-07T04:18:40;16.97;;;10.90;;
1024;SDS011;501;48.214;11.350;2023-12-07T04:21:06;18.73;;;11.87;;
1024;SDS011;501;48.214;11.350;2023-12-07T04:23:32;15.03;;;11.00;;
1024;SDS011;501;48.214;11.350;2023-12-07T04:25:58;17.10;;;11.07;;
1024;SDS011;501;48.214;11.350;2023-12-07T04:28:24;17.90;;;12.20;;
1024;SDS011;501;48.214;11.350;2023-12-07T04:30:50;15.77;;;12.03;;
1024;SDS011;501;48.214;11.350;2023-12-07T04:33:16;14.83;;;10.40;;
1024;SDS011;501;48.214;11.350;2023-12-07T04:35:42;17.40;;;11.23;;
1024;SDS011;501;48.214;11.350;2023-12-07T04:38:07;16.30;;;10.80;;
1024;SDS011;501;48.214;11.350;2023-12-07T04:40:33;13.03;;;10.50;;
1024;SDS011;501;48.214;11.350;2023-12-07T04:42:59;14.50;;;10.93;;
1024;SDS011;501;48.214;11.350;2023-12-07T04:45:25;14.13;;;10.00;;
1024;SDS011;501;48.214;11.350;2023-12-07T04:47:51;14.90;;;11.43;;
1024;SDS011;501;48.214;11.350;2023-12-07T04:50:17;15.40;;;10.37;;
1024;SDS011;501;48.214;11.350;2023-12-07T04:52:43;13.10;;;9.80;;
1024;SDS011;501;48.214;11.350;2023-12-07T04:55:09;17.50;;;10.63;;
1024;SDS011;501;48.214;11.350;2023-12-07T04:57:35;14.00;;;9.73;;
1024;SDS011;501;48.214;11.350;2023-12-07T05:00:02;15.83;;;10.40;;
1024;SDS011;501;48.214;11.350;2023-12-07T05:02:31;14.60;;;10.00;;
1024;SDS011;501;48.214;11.350;2023-12-07T05:04:57;12.70;;;9.90;;
1024;SDS011;501;48.214;11.350;2023-12-07T05:07:23;16.00;;;11.37;;
1024;SDS011;501;48.214;11.350;2023-12-07T05:09:49;15.87;;;10.13;;
1024;SDS011;501;48.214;11.350;2023-12-07T05:12:18;13.67;;;10.17;;
1024;SDS011;501;48.214;11.350;2023-12-07T05:14:44;16.20;;;11.10;;
1024;SDS011;501;48.214;11.350;2023-12-07T05:17:10;17.27;;;10.23;;
1024;SDS011;501;48.214;11.350;2023-12-07T05:19:36;16.27;;;10.70;;
1024;SDS011;501;48.214;11.350;2023-12-07T05:22:02;15.33;;;10.17;;
1024;SDS011;501;48.214;11.350;2023-12-07T05:24:29;18.03;;;10.30;;
1024;SDS011;501;48.214;11.350;2023-12-07T05:26:56;15.90;;;11.47;;
1024;SDS011;501;48.214;11.350;2023-12-07T05:29:22;14.40;;;10.73;;
1024;SDS011;501;48.214;11.350;2023-12-07T05:31:48;14.37;;;10.07;;
1024;SDS011;501;48.214;11.350;2023-12-07T05:34:17;16.10;;;10.53;;
1024;SDS011;501;48.214;11.350;2023-12-07T05:36:43;17.10;;;11.10;;
1024;SDS011;501;48.214;11.350;2023-12-07T05:39:08;13.97;;;10.63;;
1024;SDS011;501;48.214;11.350;2023-12-07T05:41:34;13.50;;;10.47;;
1024;SDS011;501;48.214;11.350;2023-12-07T05:43:59;15.80;;;10.50;;
1024;SDS011;501;48.214;11.350;2023-12-07T05:46:25;12.50;;;9.63;;
1024;SDS011;501;48.214;11.350;2023-12-07T05:48:51;18.33;;;11.37;;
1024;SDS011;501;48.214;11.350;2023-12-07T05:51:17;13.67;;;10.50;;
1024;SDS011;501;48.214;11.350;2023-12-07T05:53:43;13.77;;;10.03;;
1024;SDS011;501;48.214;11.350;2023-12-07T05:56:09;14.37;;;10.43;;
1024;SDS011;501;48.214;11.350;2023-12-07T05:58:36;18.20;;;10.17;;
1024;SDS011;501;48.214;11.350;2023-12-07T06:01:02;17.33;;;11.67;;
1024;SDS011;501;48.214;11.350;2023-12-07T06:03:28;14.77;;;10.27;;
1024;SDS011;501;48.214;11.350;2023-12-07T06:05:54;14.53;;;11.10;;
1024;SDS011;501;48.214;11.350;2023-12-07T06:08:20;15.33;;;10.30;;
1024;SDS011;501;48.214;11.350;2023-12-07T06:10:46;16.43;;;10.50;;
1024;SDS011;501;48.214;11.350;2023-12-07T06:13:15;17.50;;;11.87;;
1024;SDS011;501;48.214;11.350;2023-12-07T06:15:40;20.17;;;12.77;;
1024;SDS011;501;48.214;11.350;2023-12-07T06:18:06;18.13;;;11.97;;
1024;SDS011;501;48.214;11.350;2023-12-07T06:20:33;17.60;;;11.93;;
1024;SDS011;501;48.214;11.350;2023-12-07T06:23:00;16.70;;;12.00;;
1024;SDS011;501;48.214;11.350;2023-12-07T06:25:26;20.53;;;12.50;;
1024;SDS011;501;48.214;11.350;2023-12-07T06:27:52;21.73;;;12.30;;
1024;SDS011;501;48.214;11.350;2023-12-07T06:30:18;18.60;;;13.20;;
1024;SDS011;501;48.214;11.350;2023-12-07T06:32:44;16.47;;;12.13;;
1024;SDS011;501;48.214;11.350;2023-12-07T06:35:12;14.50;;;10.73;;
1024;SDS011;501;48.214;11.350;2023-12-07T06:37:38;16.43;;;11.07;;
1024;SDS011;501;48.214;11.350;2023-12-07T06:40:06;17.33;;;11.40;;
1024;SDS011;501;48.214;11.350;2023-12-07T06:42:34;19.17;;;12.03;;
1024;SDS011;501;48.214;11.350;2023-12-07T06:45:00;15.97;;;10.70;;
1024;SDS011;501;48.214;11.350;2023-12-07T06:47:27;14.53;;;10.27;;
1024;SDS011;501;48.214;11.350;2023-12-07T06:49:52;17.33;;;10.73;;
1024;SDS011;501;48.214;11.350;2023-12-07T06:52:21;14.20;;;10.30;;
1024;SDS011;501;48.214;11.350;2023-12-07T06:54:47;10.93;;;9.60;;
1024;SDS011;501;48.214;11.350;2023-12-07T06:57:12;17.77;;;11.03;;
1024;SDS011;501;48.214;11.350;2023-12-07T06:59:38;14.33;;;11.50;;
1024;SDS011;501;48.214;11.350;2023-12-07T07:02:05;16.47;;;9.80;;
1024;SDS011;501;48.214;11.350;2023-12-07T07:04:31;14.23;;;9.80;;
1024;SDS011;501;48.214;11.350;2023-12-07T07:06:57;14.90;;;10.90;;
1024;SDS011;501;48.214;11.350;2023-12-07T07:09:23;14.57;;;9.10;;
1024;SDS011;501;48.214;11.350;2023-12-07T07:11:48;21.43;;;10.17;;
1024;SDS011;501;48.214;11.350;2023-12-07T07:14:14;15.27;;;9.83;;
1024;SDS011;501;48.214;11.350;2023-12-07T07:16:40;14.20;;;11.00;;
1024;SDS011;501;48.214;11.350;2023-12-07T07:19:06;17.37;;;11.70;;
1024;SDS011;501;48.214;11.350;2023-12-07T07:21:32;17.07;;;12.40;;
1024;SDS011;501;48.214;11.350;2023-12-07T07:23:57;17.47;;;12.90;;
1024;SDS011;501;48.214;11.350;2023-12-07T07:26:23;18.03;;;12.20;;
1024;SDS011;501;48.214;11.350;2023-12-07T07:28:51;16.90;;;12.73;;
1024;SDS011;501;48.214;11.350;2023-12-07T07:31:17;15.30;;;11.47;;
1024;SDS011;501;48.214;11.350;2023-12-07T07:33:43;18.13;;;12.57;;
1024;SDS011;501;48.214;11.350;2023-12-07T07:36:09;15.63;;;12.70;;
1024;SDS011;501;48.214;11.350;2023-12-07T07:38:36;17.20;;;11.47;;
1024;SDS011;501;48.214;11.350;2023-12-07T07:41:02;14.10;;;11.77;;
1024;SDS011;501;48.214;11.350;2023-12-07T07:43:27;20.77;;;11.20;;
1024;SDS011;501;48.214;11.350;2023-12-07T07:45:53;15.70;;;11.60;;
1024;SDS011;501;48.214;11.350;2023-12-07T07:48:19;19.70;;;12.93;;
1024;SDS011;501;48.214;11.350;2023-12-07T07:50:44;15.93;;;12.43;;
1024;SDS011;501;48.214;11.350;2023-12-07T07:53:10;20.47;;;13.20;;
1024;SDS011;501;48.214;11.350;2023-12-07T07:55:36;16.03;;;11.80;;
1024;SDS011;501;48.214;11.350;2023-12-07T07:58:01;16.17;;;11.73;;
1024;SDS011;501;48.214;11.350;2023-12-07T08:00:27;17.80;;;13.40;;
1024;SDS011;501;48.214;11.350;2023-12-07T08:02:53;19.10;;;13.10;;
1024;SDS011;501;48.214;11.350;2023-12-07T08:05:19;18.60;;;12.67;;
1024;SDS011;501;48.214;11.350;2023-12-07T08:07:44;19.07;;;13.30;;
1024;SDS011;501;48.214;11.350;2023-12-07T08:10:13;19.73;;;12.77;;
1024;SDS011;501;48.214;11.350;2023-12-07T08:12:39;22.53;;;13.27;;
1024;SDS011;501;48.214;11.350;2023-12-07T08:15:05;18.30;;;12.57;;
1024;SDS011;501;48.214;11.350;2023-12-07T08:17:35;17.97;;;12.83;;
1024;SDS011;501;48.214;11.350;2023-12-07T08:20:02;17.83;;;11.10;;
1024;SDS011;501;48.214;11.350;2023-12-07T08:22:29;16.50;;;10.80;;
1024;SDS011;501;48.214;11.350;2023-12-07T08:24:55;12.90;;;10.50;;
1024;SDS011;501;48.214;11.350;2023-12-07T08:27:21;15.13;;;11.00;;
1024;SDS011;501;48.214;11.350;2023-12-07T08:29:46;16.90;;;10.53;;
1024;SDS011;501;48.214;11.350;2023-12-07T08:32:12;16.50;;;11.73;;
1024;SDS011;501;48.214;11.350;2023-12-07T08:34:39;17.17;;;11.80;;
1024;SDS011;501;48.214;11.350;2023-12-07T08:37:05;14.73;;;11.20;;
1024;SDS011;501;48.214;11.350;2023-12-07T08:39:33;18.07;;;12.10;;
1024;SDS011;501;48.214;11.350;2023-12-07T08:41:59;14.77;;;11.20;;
1024;SDS011;501;48.214;11.350;2023-12-07T08:44:25;15.37;;;11.80;;
1024;SDS011;501;48.214;11.350;2023-12-07T08:46:51;16.93;;;12.17;;
1024;SDS011;501;48.214;11.350;2023-12-07T08:49:17;16.27;;;12.83;;
1024;SDS011;501;48.214;11.350;2023-12-07T08:51:44;17.60;;;12.17;;
1024;SDS011;501;48.214;11.350;2023-12-07T08:54:10;16.93;;;12.80;;
1024;SDS011;501;48.214;11.350;2023-12-07T08:56:35;18.70;;;12.33;;
1024;SDS011;501;48.214;11.350;2023-12-07T08:59:01;15.60;;;11.50;;
1024;SDS011;501;48.214;11.350;2023-12-07T09:01:27;17.20;;;12.13;;
1024;SDS011;501;48.214;11.350;2023-12-07T09:03:53;22.33;;;12.77;;
1024;SDS011;501;48.214;11.350;2023-12-07T09:06:18;16.33;;;10.50;;
1024;SDS011;501;48.214;11.350;2023-12-07T09:08:46;18.83;;;11.53;;
1024;SDS011;501;48.214;11.350;2023-12-07T09:11:12;15.93;;;11.53;;
1024;SDS011;501;48.214;11.350;2023-12-07T09:13:38;15.93;;;11.93;;
1024;SDS011;501;48.214;11.350;2023-12-07T09:16:04;20.00;;;11.10;;
1024;SDS011;501;48.214;11.350;2023-12-07T09:18:29;13.90;;;10.37;;
1024;SDS011;501;48.214;11.350;2023-12-07T09:20:55;13.50;;;10.23;;
1024;SDS011;501;48.214;11.350;2023-12-07T09:23:21;17.40;;;11.87;;
1024;SDS011;501;48.214;11.350;2023-12-07T09:25:46;13.60;;;10.67;;
1024;SDS011;501;48.214;11.350;2023-12-07T09:28:12;15.70;;;10.60;;
1024;SDS011;501;48.214;11.350;2023-12-07T09:30:37;15.30;;;11.27;;
1024;SDS011;501;48.214;11.350;2023-12-07T09:33:03;12.77;;;9.80;;
1024;SDS011;501;48.214;11.350;2023-12-07T09:35:29;18.00;;;11.87;;
1024;SDS011;501;48.214;11.350;2023-12-07T09:37:54;15.87;;;10.27;;
1024;SDS011;501;48.214;11.350;2023-12-07T09:40:21;16.10;;;11.57;;
1024;SDS011;501;48.214;11.350;2023-12-07T09:42:48;14.83;;;11.13;;
1024;SDS011;501;48.214;11.350;2023-12-07T09:45:14;16.37;;;11.60;;
1024;SDS011;501;48.214;11.350;2023-12-07T09:47:42;16.63;;;12.27;;
1024;SDS011;501;48.214;11.350;2023-12-07T09:50:09;14.63;;;11.53;;
1024;SDS011;501;48.214;11.350;2023-12-07T09:52:35;12.93;;;9.53;;
1024;SDS011;501;48.214;11.350;2023-12-07T09:55:02;16.17;;;11.37;;
1024;SDS011;501;48.214;11.350;2023-12-07T09:57:28;15.53;;;11.67;;
1024;SDS011;501;48.214;11.350;2023-12-07T09:59:57;13.93;;;10.97;;
1024;SDS011;501;48.214;11.350;2023-12-07T10:02:23;17.63;;;10.43;;
1024;SDS011;501;48.214;11.350;2023-12-07T10:05:06;10.50;;;8.80;;
1024;SDS011;501;48.214;11.350;2023-12-07T10:07:35;11.07;;;8.30;;
1024;SDS011;501;48.214;11.350;2023-12-07T10:10:03;11.70;;;8.60;;
1024;SDS011;501;48.214;11.350;2023-12-07T10:12:32;12.30;;;8.37;;
1024;SDS011;501;48.214;11.350;2023-12-07T10:15:00;12.67;;;9.20;;
1024;SDS011;501;48.214;11.350;2023-12-07T10:17:47;11.17;;;8.20;;
1024;SDS011;501;48.214;11.350;2023-12-07T10:20:21;11.10;;;8.23;;
1024;SDS011;501;48.214;11.350;2023-12-07T10:23:09;11.20;;;8.30;;
1024;SDS011;501;48.214;11.350;2023-12-07T10:25:38;11.93;;;8.23;;
1024;SDS011;501;48.214;11.350;2023-12-07T10:28:08;8.70;;;7.20;;
1024;SDS011;501;48.214;11.350;2023-12-07T10:30:36;9.50;;;7.47;;
1024;SDS011;501;48.214;11.350;2023-12-07T10:33:04;11.83;;;8.47;;
1024;SDS011;501;48.214;11.350;2023-12-07T10:35:32;9.43;;;8.33;;
1024;SDS011;501;48.214;11.350;2023-12-07T10:37:58;9.93;;;7.20;;
1024;SDS011;501;48.214;11.350;2023-12-07T10:40:25;8.43;;;6.83;;
1024;SDS011;501;48.214;11.350;2023-12-07T10:42:52;9.07;;;6.70;;
1024;SDS011;501;48.214;11.350;2023-12-07T10:45:24;11.90;;;7.20;;
1024;SDS011;501;48.214;11.350;2023-12-07T10:47:52;9.40;;;6.70;;
1024;SDS011;501;48.214;11.350;2023-12-07T10:50:24;9.77;;;6.47;;
1024;SDS011;501;48.214;11.350;2023-12-07T10:52:56;9.60;;;6.43;;
1024;SDS011;501;48.214;11.350;2023-12-07T10:55:28;8.57;;;6.27;;
1024;SDS011;501;48.214;11.350;2023-12-07T10:57:59;7.00;;;5.00;;
1024;SDS011;501;48.214;11.350;2023-12-07T11:00:26;6.20;;;4.63;;
1024;SDS011;501;48.214;11.350;2023-12-07T11:02:53;6.83;;;4.73;;
1024;SDS011;501;48.214;11.350;2023-12-07T11:05:19;7.40;;;4.50;;
1024;SDS011;501;48.214;11.350;2023-12-07T11:07:54;5.40;;;4.50;;
1024;SDS011;501;48.214;11.350;2023-12-07T11:10:34;4.70;;;4.20;;
1024;SDS011;501;48.214;11.350;2023-12-07T11:13:27;6.40;;;5.53;;
1024;SDS011;501;48.214;11.350;2023-12-07T11:15:56;6.73;;;4.20;;
1024;SDS011;501;48.214;11.350;2023-12-07T11:18:24;7.93;;;4.83;;
1024;SDS011;501;48.214;11.350;2023-12-07T11:20:51;5.30;;;4.03;;
1024;SDS011;501;48.214;11.350;2023-12-07T11:23:19;5.30;;;3.80;;
1024;SDS011;501;48.214;11.350;2023-12-07T11:25:46;4.93;;;4.03;;
1024;SDS011;501;48.214;11.350;2023-12-07T11:28:12;4.17;;;3.77;;
1024;SDS011;501;48.214;11.350;2023-12-07T11:30:41;4.73;;;2.97;;
1024;SDS011;501;48.214;11.350;2023-12-07T11:33:09;3.30;;;3.00;;
1024;SDS011;501;48.214;11.350;2023-12-07T11:38:27;3.30;;;3.00;;
1024;SDS011;501;48.214;11.350;2023-12-07T11:40:54;5.00;;;2.70;;
1024;SDS011;501;48.214;11.350;2023-12-07T11:46:03;4.03;;;3.20;;
1024;SDS011;501;48.214;11.350;2023-12-07T11:48:29;3.93;;;3.13;;
1024;SDS011;501;48.214;11.350;2023-12-07T11:53:27;4.97;;;3.03;;
1024;SDS011;501;48.214;11.350;2023-12-07T11:55:57;3.43;;;3.03;;
1024;SDS011;501;48.214;11.350;2023-12-07T11:58:24;6.00;;;5.37;;
1024;SDS011;501;48.214;11.350;2023-12-07T12:01:10;9.63;;;6.83;;
1024;SDS011;501;48.214;11.350;2023-12-07T12:03:36;8.27;;;5.70;;
1024;SDS011;501;48.214;11.350;2023-12-07T12:06:02;5.20;;;4.47;;
1024;SDS011;501;48.214;11.350;2023-12-07T12:08:31;5.37;;;4.40;;
1024;SDS011;501;48.214;11.350;2023-12-07T12:10:57;7.70;;;4.87;;
1024;SDS011;501;48.214;11.350;2023-12-07T12:13:29;5.43;;;4.50;;
1024;SDS011;501;48.214;11.350;2023-12-07T12:15:58;7.13;;;6.10;;
1024;SDS011;501;48.214;11.350;2023-12-07T12:18:24;7.87;;;5.50;;
1024;SDS011;501;48.214;11.350;2023-12-07T12:20:53;8.33;;;5.87;;
1024;SDS011;501;48.214;11.350;2023-12-07T12:23:19;8.80;;;5.70;;
1024;SDS011;501;48.214;11.350;2023-12-07T12:25:45;6.80;;;5.67;;
1024;SDS011;501;48.214;11.350;2023-12-07T12:28:11;6.50;;;5.33;;
1024;SDS011;501;48.214;11.350;2023-12-07T12:30:44;7.40;;;5.07;;
1024;SDS011;501;48.214;11.350;2023-12-07T12:33:10;6.57;;;4.87;;
1024;SDS011;501;48.214;11.350;2023-12-07T12:35:37;7.17;;;5.10;;
1024;SDS011;501;48.214;11.350;2023-12-07T12:38:03;6.30;;;4.43;;
1024;SDS011;501;48.214;11.350;2023-12-07T12:40:35;5.20;;;4.70;;
1024;SDS011;501;48.214;11.350;2023-12-07T12:43:01;6.93;;;5.00;;
1024;SDS011;501;48.214;11.350;2023-12-07T12:45:27;7.07;;;5.60;;
1024;SDS011;501;48.214;11.350;2023-12-07T12:47:53;7.67;;;6.23;;
1024;SDS011;501;48.214;11.350;2023-12-07T12:50:36;7.40;;;5.30;;
1024;SDS011;501;48.214;11.350;2023-12-07T12:53:04;7.87;;;5.77;;
1024;SDS011;501;48.214;11.350;2023-12-07T12:55:31;7.57;;;6.37;;
1024;SDS011;501;48.214;11.350;2023-12-07T12:58:07;8.60;;;5.10;;
1024;SDS011;501;48.214;11.350;2023-12-07T13:00:38;5.10;;;4.60;;
1024;SDS011;501;48.214;11.350;2023-12-07T13:03:05;7.27;;;4.97;;
1024;SDS011;501;48.214;11.350;2023-12-07T13:05:31;6.77;;;4.93;;
1024;SDS011;501;48.214;11.350;2023-12-07T13:07:59;5.90;;;5.03;;
1024;SDS011;501;48.214;11.350;2023-12-07T13:10:25;7.93;;;5.97;;
1024;SDS011;501;48.214;11.350;2023-12-07T13:12:51;6.00;;;5.30;;
1024;SDS011;501;48.214;11.350;2023-12-07T13:15:17;8.83;;;6.33;;
1024;SDS011;501;48.214;11.350;2023-12-07T13:17:43;7.00;;;6.13;;
1024;SDS011;501;48.214;11.350;2023-12-07T13:20:09;6.70;;;5.60;;
1024;SDS011;501;48.214;11.350;2023-12-07T13:22:36;5.93;;;5.30;;
1024;SDS011;501;48.214;11.350;2023-12-07T13:25:02;6.87;;;5.40;;
1024;SDS011;501;48.214;11.350;2023-12-07T13:27:28;6.70;;;6.00;;
1024;SDS011;501;48.214;11.350;2023-12-07T13:29:54;7.97;;;5.57;;
1024;SDS011;501;48.214;11.350;2023-12-07T13:32:20;6.43;;;5.60;;
1024;SDS011;501;48.214;11.350;2023-12-07T13:34:45;7.97;;;6.10;;
1024;SDS011;501;48.214;11.350;2023-12-07T13:37:11;7.53;;;6.73;;
1024;SDS011;501;48.214;11.350;2023-12-07T13:39:36;8.70;;;6.43;;
1024;SDS011;501;48.214;11.350;2023-12-07T13:42:07;12.60;;;7.10;;
1024;SDS011;501;48.214;11.350;2023-12-07T13:44:37;8.30;;;6.77;;
1024;SDS011;501;48.214;11.350;2023-12-07T13:47:02;12.50;;;6.90;;
1024;SDS011;501;48.214;11.350;2023-12-07T13:49:28;9.90;;;7.03;;
1024;SDS011;501;48.214;11.350;2023-12-07T13:51:54;8.57;;;6.63;;
1024;SDS011;501;48.214;11.350;2023-12-07T13:54:20;11.47;;;7.70;;
1024;SDS011;501;48.214;11.350;2023-12-07T13:56:48;11.10;;;8.50;;
1024;SDS011;501;48.214;11.350;2023-12-07T13:59:13;13.33;;;8.20;;
1024;SDS011;501;48.214;11.350;2023-12-07T14:01:39;11.17;;;9.20;;
1024;SDS011;501;48.214;11.350;2023-12-07T14:04:05;12.20;;;9.60;;
1024;SDS011;501;48.214;11.350;2023-12-07T14:06:33;14.57;;;10.73;;
1024;SDS011;501;48.214;11.350;2023-12-07T14:09:00;16.50;;;10.97;;
1024;SDS011;501;48.214;11.350;2023-12-07T14:11:27;15.80;;;11.50;;
1024;SDS011;501;48.214;11.350;2023-12-07T14:13:53;17.77;;;13.13;;
1024;SDS011;501;48.214;11.350;2023-12-07T14:16:19;19.10;;;12.40;;
1024;SDS011;501;48.214;11.350;2023-12-07T14:18:47;18.87;;;12.37;;
1024;SDS011;501;48.214;11.350;2023-12-07T14:21:12;16.00;;;12.80;;
1024;SDS011;501;48.214;11.350;2023-12-07T14:23:39;16.30;;;12.40;;
1024;SDS011;501;48.214;11.350;2023-12-07T14:26:05;18.70;;;12.60;;
1024;SDS011;501;48.214;11.350;2023-12-07T14:28:31;15.97;;;11.10;;
1024;SDS011;501;48.214;11.350;2023-12-07T14:30:59;17.27;;;12.70;;
1024;SDS011;501;48.214;11.350;2023-12-07T14:33:24;17.07;;;12.20;;
1024;SDS011;501;48.214;11.350;2023-12-07T14:35:50;18.93;;;11.53;;
1024;SDS011;501;48.214;11.350;2023-12-07T14:38:16;15.33;;;11.00;;
1024;SDS011;501;48.214;11.350;2023-12-07T14:40:41;15.07;;;11.17;;
1024;SDS011;501;48.214;11.350;2023-12-07T14:43:07;12.80;;;10.17;;
1024;SDS011;501;48.214;11.350;2023-12-07T14:45:33;12.97;;;10.03;;
1024;SDS011;501;48.214;11.350;2023-12-07T14:47:58;14.30;;;10.10;;
1024;SDS011;501;48.214;11.350;2023-12-07T14:50:25;12.63;;;10.03;;
1024;SDS011;501;48.214;11.350;2023-12-07T14:52:53;17.47;;;10.97;;
1024;SDS011;501;48.214;11.350;2023-12-07T14:55:18;15.30;;;11.00;;
1024;SDS011;501;48.214;11.350;2023-12-07T14:57:44;14.00;;;10.63;;
1024;SDS011;501;48.214;11.350;2023-12-07T15:00:10;16.80;;;12.03;;
1024;SDS011;501;48.214;11.350;2023-12-07T15:02:36;16.43;;;12.17;;
1024;SDS011;501;48.214;11.350;2023-12-07T15:05:02;13.37;;;10.60;;
1024;SDS011;501;48.214;11.350;2023-12-07T15:07:29;15.27;;;10.60;;
1024;SDS011;501;48.214;11.350;2023-12-07T15:09:55;19.10;;;11.53;;
1024;SDS011;501;48.214;11.350;2023-12-07T15:12:21;15.57;;;10.90;;
1024;SDS011;501;48.214;11.350;2023-12-07T15:14:46;14.50;;;11.10;;
1024;SDS011;501;48.214;11.350;2023-12-07T15:17:12;13.03;;;9.50;;
1024;SDS011;501;48.214;11.350;2023-12-07T15:19:37;14.10;;;9.80;;
1024;SDS011;501;48.214;11.350;2023-12-07T15:22:03;12.90;;;10.67;;
1024;SDS011;501;48.214;11.350;2023-12-07T15:24:30;13.40;;;9.97;;
1024;SDS011;501;48.214;11.350;2023-12-07T15:26:57;13.43;;;9.53;;
1024;SDS011;501;48.214;11.350;2023-12-07T15:29:23;12.10;;;9.73;;
1024;SDS011;501;48.214;11.350;2023-12-07T15:31:49;14.13;;;9.20;;
1024;SDS011;501;48.214;11.350;2023-12-07T15:34:15;15.90;;;11.33;;
1024;SDS011;501;48.214;11.350;2023-12-07T15:36:41;17.50;;;11.80;;
1024;SDS011;501;48.214;11.350;2023-12-07T15:39:06;13.70;;;10.47;;
1024;SDS011;501;48.214;11.350;2023-12-07T15:41:33;12.70;;;10.43;;
1024;SDS011;501;48.214;11.350;2023-12-07T15:43:59;18.63;;;12.03;;
1024;SDS011;501;48.214;11.350;2023-12-07T15:46:25;15.23;;;12.23;;
1024;SDS011;501;48.214;11.350;2023-12-07T15:48:51;17.33;;;12.90;;
1024;SDS011;501;48.214;11.350;2023-12-07T15:51:16;17.67;;;12.63;;
1024;SDS011;501;48.214;11.350;2023-12-07T15:53:42;19.07;;;12.97;;
1024;SDS011;501;48.214;11.350;2023-12-07T15:56:07;19.73;;;13.37;;
1024;SDS011;501;48.214;11.350;2023-12-07T15:58:33;19.30;;;14.37;;
1024;SDS011;501;48.214;11.350;2023-12-07T16:00:59;18.60;;;13.00;;
1024;SDS011;501;48.214;11.350;2023-12-07T16:03:24;19.20;;;13.47;;
1024;SDS011;501;48.214;11.350;2023-12-07T16:05:51;18.50;;;12.93;;
1024;SDS011;501;48.214;11.350;2023-12-07T16:08:16;16.60;;;12.57;;
1024;SDS011;501;48.214;11.350;2023-12-07T16:10:42;16.80;;;12.80;;
1024;SDS011;501;48.214;11.350;2023-12-07T16:13:08;19.83;;;14.47;;
1024;SDS011;501;48.214;11.350;2023-12-07T16:15:35;17.37;;;13.97;;
1024;SDS011;501;48.214;11.350;2023-12-07T16:18:01;20.40;;;13.87;;
1024;SDS011;501;48.214;11.350;2023-12-07T16:20:27;19.10;;;13.43;;
1024;SDS011;501;48.214;11.350;2023-12-07T16:38:38;23.17;;;15.93;;
1024;SDS011;501;48.214;11.350;2023-12-07T16:56:56;21.80;;;14.87;;
1024;SDS011;501;48.214;11.350;2023-12-07T16:59:22;22.30;;;15.20;;
1024;SDS011;501;48.214;11.350;2023-12-07T17:17:20;20.57;;;14.67;;
1024;SDS011;501;48.214;11.350;2023-12-07T17:19:47;21.50;;;16.20;;
1024;SDS011;501;48.214;11.350;2023-12-07T17:24:50;26.43;;;16.67;;
1024;SDS011;501;48.214;11.350;2023-12-07T17:27:19;27.93;;;18.10;;
1024;SDS011;501;48.214;11.350;2023-12-07T17:29:45;24.80;;;16.60;;
1024;SDS011;501;48.214;11.350;2023-12-07T17:34:44;23.90;;;15.30;;
1024;SDS011;501;48.214;11.350;2023-12-07T17:37:12;26.90;;;17.23;;
1024;SDS011;501;48.214;11.350;2023-12-07T17:39:38;23.53;;;15.03;;
1024;SDS011;501;48.214;11.350;2023-12-07T17:44:41;22.10;;;14.60;;
1024;SDS011;501;48.214;11.350;2023-12-07T17:47:06;22.43;;;14.33;;
1024;SDS011;501;48.214;11.350;2023-12-07T17:49:32;21.77;;;14.13;;
1024;SDS011;501;48.214;11.350;2023-12-07T17:54:28;22.47;;;14.73;;
1024;SDS011;501;48.214;11.350;2023-12-07T17:56:57;25.73;;;15.23;;
1024;SDS011;501;48.214;11.350;2023-12-07T17:59:23;18.83;;;13.37;;
1024;SDS011;501;48.214;11.350;2023-12-07T18:01:49;25.57;;;18.07;;
1024;SDS011;501;48.214;11.350;2023-12-07T18:04:15;24.63;;;16.20;;
1024;SDS011;501;48.214;11.350;2023-12-07T18:06:41;60.20;;;29.97;;
1024;SDS011;501;48.214;11.350;2023-12-07T18:09:07;54.87;;;30.70;;
1024;SDS011;501;48.214;11.350;2023-12-07T18:16:47;24.47;;;16.07;;
1024;SDS011;501;48.214;11.350;2023-12-07T18:19:13;22.10;;;15.70;;
1024;SDS011;501;48.214;11.350;2023-12-07T18:24:15;21.37;;;13.90;;
1024;SDS011;501;48.214;11.350;2023-12-07T18:26:42;26.33;;;16.90;;
1024;SDS011;501;48.214;11.350;2023-12-07T18:29:08;24.50;;;17.27;;
1024;SDS011;501;48.214;11.350;2023-12-07T18:34:11;23.50;;;16.87;;
1024;SDS011;501;48.214;11.350;2023-12-07T18:36:37;23.67;;;16.50;;
1024;SDS011;501;48.214;11.350;2023-12-07T18:39:03;25.13;;;17.17;;
1024;SDS011;501;48.214;11.350;2023-12-07T18:44:00;24.90;;;16.17;;
1024;SDS011;501;48.214;11.350;2023-12-07T18:46:27;24.53;;;15.93;;
1024;SDS011;501;48.214;11.350;2023-12-07T18:48:54;20.00;;;15.23;;
1024;SDS011;501;48.214;11.350;2023-12-07T18:51:20;24.83;;;14.20;;
1024;SDS011;501;48.214;11.350;2023-12-07T18:53:46;22.17;;;16.47;;
1024;SDS011;501;48.214;11.350;2023-12-07T18:56:12;22.80;;;14.77;;
1024;SDS011;501;48.214;11.350;2023-12-07T18:58:37;22.23;;;16.37;;
1024;SDS011;501;48.214;11.350;2023-12-07T19:03:38;26.50;;;16.80;;
1024;SDS011;501;48.214;11.350;2023-12-07T19:06:05;24.50;;;16.10;;
1024;SDS011;501;48.214;11.350;2023-12-07T19:08:31;21.60;;;15.67;;
1024;SDS011;501;48.214;11.350;2023-12-07T19:10:57;24.13;;;17.30;;
1024;SDS011;501;48.214;11.350;2023-12-07T19:13:23;26.27;;;17.57;;
1024;SDS011;501;48.214;11.350;2023-12-07T19:15:48;27.10;;;16.77;;
1024;SDS011;501;48.214;11.350;2023-12-07T19:18:18;24.57;;;15.60;;
1024;SDS011;501;48.214;11.350;2023-12-07T19:20:46;28.37;;;16.60;;
1024;SDS011;501;48.214;11.350;2023-12-07T19:25:41;27.53;;;19.00;;
1024;SDS011;501;48.214;11.350;2023-12-07T19:28:07;28.87;;;19.57;;